sensor_id;sensor_type;location;lat;lon;timestamp;pressure;altitude;pressure_sealevel;temperature;humidity
36062;BME280;22123;52.412;20.970;2023-06-10T00:01:11;100672.13;;;16.91;100.00
36062;BME280;22123;52.412;20.970;2023-06-10T00:03:37;100711.06;;;17.18;100.00
36062;BME280;22123;52.412;20.970;2023-06-10T00:06:04;100703.50;;;17.07;100.00
36062;BME280;22123;52.412;20.970;2023-06-10T00:08:30;100692.84;;;16.98;100.00
36062;BME280;22123;52.412;20.970;2023-06-10T00:10:56;100716.28;;;17.06;100.00
36062;BME280;22123;52.412;20.970;2023-06-10T00:13:21;100679.00;;;16.86;100.00
36062;BME280;22123;52.412;20.970;2023-06-10T00:15:48;100677.53;;;16.77;100.00
36062;BME280;22123;52.412;20.970;2023-06-10T00:18:14;100663.53;;;16.67;100.00
36062;BME280;22123;52.412;20.970;2023-06-10T00:20:40;100691.75;;;16.79;100.00
36062;BME280;22123;52.412;20.970;2023-06-10T00:23:06;100671.66;;;16.60;100.00
36062;BME280;22123;52.412;20.970;2023-06-10T00:25:32;100709.31;;;16.77;100.00
36062;BME280;22123;52.412;20.970;2023-06-10T00:27:58;100688.59;;;16.62;100.00
36062;BME280;22123;52.412;20.970;2023-06-10T00:30:23;100711.59;;;16.66;100.00
36062;BME280;22123;52.412;20.970;2023-06-10T00:32:49;100664.31;;;16.34;100.00
36062;BME280;22123;52.412;20.970;2023-06-10T00:35:15;100708.44;;;16.56;100.00
36062;BME280;22123;52.412;20.970;2023-06-10T00:37:41;100670.34;;;16.29;100.00
36062;BME280;22123;52.412;20.970;2023-06-10T00:40:06;100698.59;;;16.42;100.00
36062;BME280;22123;52.412;20.970;2023-06-10T00:42:32;100680.38;;;16.22;100.00
36062;BME280;22123;52.412;20.970;2023-06-10T00:44:58;100705.91;;;16.41;100.00
36062;BME280;22123;52.412;20.970;2023-06-10T00:47:25;100692.69;;;16.25;100.00
36062;BME280;22123;52.412;20.970;2023-06-10T00:49:51;100689.34;;;16.23;100.00
36062;BME280;22123;52.412;20.970;2023-06-10T00:52:17;100707.56;;;16.36;100.00
36062;BME280;22123;52.412;20.970;2023-06-10T00:54:44;100702.31;;;16.27;100.00
36062;BME280;22123;52.412;20.970;2023-06-10T00:57:10;100669.31;;;16.24;100.00
36062;BME280;22123;52.412;20.970;2023-06-10T00:59:37;100677.84;;;16.27;100.00
36062;BME280;22123;52.412;20.970;2023-06-10T01:02:03;100687.50;;;16.37;100.00
36062;BME280;22123;52.412;20.970;2023-06-10T01:04:29;100707.81;;;16.54;100.00
36062;BME280;22123;52.412;20.970;2023-06-10T01:07:21;100694.44;;;16.46;100.00
36062;BME280;22123;52.412;20.970;2023-06-10T01:10:12;100702.16;;;16.49;100.00
36062;BME280;22123;52.412;20.970;2023-06-10T01:12:45;100715.53;;;16.50;100.00
36062;BME280;22123;52.412;20.970;2023-06-10T01:15:12;100685.38;;;16.25;100.00
36062;BME280;22123;52.412;20.970;2023-06-10T01:18:00;100683.94;;;16.36;100.00
36062;BME280;22123;52.412;20.970;2023-06-10T01:20:26;100677.47;;;16.37;100.00
36062;BME280;22123;52.412;20.970;2023-06-10T01:22:55;100714.53;;;16.65;100.00
36062;BME280;22123;52.412;20.970;2023-06-10T01:25:22;100641.50;;;16.15;100.00
36062;BME280;22123;52.412;20.970;2023-06-10T01:27:49;100692.53;;;16.46;100.00
36062;BME280;22123;52.412;20.970;2023-06-10T01:30:17;100690.41;;;16.35;100.00
36062;BME280;22123;52.412;20.970;2023-06-10T01:32:48;100704.03;;;16.42;100.00
36062;BME280;22123;52.412;20.970;2023-06-10T01:35:16;100695.22;;;16.33;100.00
36062;BME280;22123;52.412;20.970;2023-06-10T01:37:45;100725.78;;;16.55;100.00
36062;BME280;22123;52.412;20.970;2023-06-10T01:40:12;100698.19;;;16.38;100.00
36062;BME280;22123;52.412;20.970;2023-06-10T01:42:39;100719.50;;;16.48;100.00
36062;BME280;22123;52.412;20.970;2023-06-10T01:45:05;100682.88;;;16.30;100.00
36062;BME280;22123;52.412;20.970;2023-06-10T01:47:31;100678.25;;;16.17;100.00
36062;BME280;22123;52.412;20.970;2023-06-10T01:49:57;100699.78;;;16.26;100.00
36062;BME280;22123;52.412;20.970;2023-06-10T01:52:23;100711.56;;;16.40;100.00
36062;BME280;22123;52.412;20.970;2023-06-10T01:54:49;100704.63;;;16.30;100.00
36062;BME280;22123;52.412;20.970;2023-06-10T01:57:14;100728.47;;;16.42;100.00
36062;BME280;22123;52.412;20.970;2023-06-10T01:59:40;100691.19;;;16.15;100.00
36062;BME280;22123;52.412;20.970;2023-06-10T02:02:06;100706.88;;;16.20;100.00
36062;BME280;22123;52.412;20.970;2023-06-10T02:04:32;100709.81;;;16.19;100.00
36062;BME280;22123;52.412;20.970;2023-06-10T02:06:58;100730.09;;;16.23;100.00
36062;BME280;22123;52.412;20.970;2023-06-10T02:09:25;100726.91;;;16.19;100.00
36062;BME280;22123;52.412;20.970;2023-06-10T02:11:51;100708.91;;;16.05;100.00
36062;BME280;22123;52.412;20.970;2023-06-10T02:14:16;100744.09;;;16.26;100.00
36062;BME280;22123;52.412;20.970;2023-06-10T02:16:42;100698.41;;;15.88;100.00
36062;BME280;22123;52.412;20.970;2023-06-10T02:19:08;100749.66;;;16.11;100.00
36062;BME280;22123;52.412;20.970;2023-06-10T02:21:34;100755.50;;;16.08;100.00
36062;BME280;22123;52.412;20.970;2023-06-10T02:23:59;100742.75;;;16.09;100.00
36062;BME280;22123;52.412;20.970;2023-06-10T02:26:25;100724.06;;;15.86;100.00
36062;BME280;22123;52.412;20.970;2023-06-10T02:28:51;100710.66;;;15.77;100.00
36062;BME280;22123;52.412;20.970;2023-06-10T02:31:17;100751.09;;;16.01;100.00
36062;BME280;22123;52.412;20.970;2023-06-10T02:33:43;100706.00;;;15.71;100.00
36062;BME280;22123;52.412;20.970;2023-06-10T02:36:10;100756.47;;;15.94;100.00
36062;BME280;22123;52.412;20.970;2023-06-10T02:38:36;100730.63;;;15.70;100.00
36062;BME280;22123;52.412;20.970;2023-06-10T02:41:01;100750.63;;;15.90;100.00
36062;BME280;22123;52.412;20.970;2023-06-10T02:43:27;100753.34;;;15.90;100.00
36062;BME280;22123;52.412;20.970;2023-06-10T02:45:53;100755.66;;;15.93;100.00
36062;BME280;22123;52.412;20.970;2023-06-10T02:48:19;100761.50;;;15.90;100.00
36062;BME280;22123;52.412;20.970;2023-06-10T02:50:45;100753.34;;;15.90;100.00
36062;BME280;22123;52.412;20.970;2023-06-10T02:53:10;100750.50;;;15.77;100.00
36062;BME280;22123;52.412;20.970;2023-06-10T02:55:36;100772.72;;;15.87;100.00
36062;BME280;22123;52.412;20.970;2023-06-10T02:58:02;100737.47;;;15.65;100.00
36062;BME280;22123;52.412;20.970;2023-06-10T03:00:28;100775.44;;;15.87;100.00
36062;BME280;22123;52.412;20.970;2023-06-10T03:02:53;100762.25;;;15.84;100.00
36062;BME280;22123;52.412;20.970;2023-06-10T03:05:19;100775.22;;;15.89;100.00
36062;BME280;22123;52.412;20.970;2023-06-10T03:07:45;100777.53;;;15.85;100.00
36062;BME280;22123;52.412;20.970;2023-06-10T03:10:11;100783.56;;;15.87;100.00
36062;BME280;22123;52.412;20.970;2023-06-10T03:12:36;100779.41;;;15.85;100.00
36062;BME280;22123;52.412;20.970;2023-06-10T03:15:02;100785.25;;;15.88;100.00
36062;BME280;22123;52.412;20.970;2023-06-10T03:17:28;100746.88;;;15.63;100.00
36062;BME280;22123;52.412;20.970;2023-06-10T03:19:54;100786.69;;;15.84;100.00
36062;BME280;22123;52.412;20.970;2023-06-10T03:22:19;100758.75;;;15.62;100.00
36062;BME280;22123;52.412;20.970;2023-06-10T03:24:45;100789.00;;;15.80;100.00
36062;BME280;22123;52.412;20.970;2023-06-10T03:27:11;100766.09;;;15.68;100.00
36062;BME280;22123;52.412;20.970;2023-06-10T03:29:37;100749.78;;;15.61;100.00
36062;BME280;22123;52.412;20.970;2023-06-10T03:32:03;100778.69;;;15.76;100.00
36062;BME280;22123;52.412;20.970;2023-06-10T03:34:29;100791.28;;;15.84;100.00
36062;BME280;22123;52.412;20.970;2023-06-10T03:36:55;100761.72;;;15.67;100.00
36062;BME280;22123;52.412;20.970;2023-06-10T03:39:21;100760.47;;;15.70;100.00
36062;BME280;22123;52.412;20.970;2023-06-10T03:41:47;100781.47;;;15.82;100.00
36062;BME280;22123;52.412;20.970;2023-06-10T03:44:13;100796.59;;;15.92;100.00
36062;BME280;22123;52.412;20.970;2023-06-10T03:46:39;100758.41;;;15.72;100.00
36062;BME280;22123;52.412;20.970;2023-06-10T03:49:05;100798.50;;;15.98;100.00
36062;BME280;22123;52.412;20.970;2023-06-10T03:51:30;100787.34;;;15.86;100.00
36062;BME280;22123;52.412;20.970;2023-06-10T03:53:56;100811.03;;;15.99;100.00
36062;BME280;22123;52.412;20.970;2023-06-10T03:56:22;100789.88;;;15.94;100.00
36062;BME280;22123;52.412;20.970;2023-06-10T03:58:48;100802.09;;;16.05;100.00
36062;BME280;22123;52.412;20.970;2023-06-10T04:01:14;100784.47;;;15.94;100.00
36062;BME280;22123;52.412;20.970;2023-06-10T04:03:39;100817.38;;;16.13;100.00
36062;BME280;22123;52.412;20.970;2023-06-10T04:06:05;100764.16;;;15.84;100.00
36062;BME280;22123;52.412;20.970;2023-06-10T04:08:31;100821.56;;;16.15;100.00
36062;BME280;22123;52.412;20.970;2023-06-10T04:10:57;100807.09;;;16.08;100.00
36062;BME280;22123;52.412;20.970;2023-06-10T04:13:23;100825.97;;;16.16;100.00
36062;BME280;22123;52.412;20.970;2023-06-10T04:15:48;100793.47;;;16.02;100.00
36062;BME280;22123;52.412;20.970;2023-06-10T04:18:14;100786.41;;;16.07;100.00
36062;BME280;22123;52.412;20.970;2023-06-10T04:20:40;100806.34;;;16.28;100.00
36062;BME280;22123;52.412;20.970;2023-06-10T04:23:06;100816.00;;;16.30;100.00
36062;BME280;22123;52.412;20.970;2023-06-10T04:25:32;100735.13;;;15.84;100.00
36062;BME280;22123;52.412;20.970;2023-06-10T04:27:57;100812.28;;;16.38;100.00
36062;BME280;22123;52.412;20.970;2023-06-10T04:30:23;100794.44;;;16.22;100.00
36062;BME280;22123;52.412;20.970;2023-06-10T04:32:49;100811.88;;;16.41;100.00
36062;BME280;22123;52.412;20.970;2023-06-10T04:35:15;100805.59;;;16.41;100.00
36062;BME280;22123;52.412;20.970;2023-06-10T04:37:41;100814.81;;;16.46;100.00
36062;BME280;22123;52.412;20.970;2023-06-10T04:40:08;100795.13;;;16.38;100.00
36062;BME280;22123;52.412;20.970;2023-06-10T04:42:34;100801.44;;;16.45;100.00
36062;BME280;22123;52.412;20.970;2023-06-10T04:45:00;100799.94;;;16.42;100.00
36062;BME280;22123;52.412;20.970;2023-06-10T04:47:26;100811.09;;;16.54;100.00
36062;BME280;22123;52.412;20.970;2023-06-10T04:49:52;100794.34;;;16.44;100.00
36062;BME280;22123;52.412;20.970;2023-06-10T04:52:18;100811.50;;;16.58;100.00
36062;BME280;22123;52.412;20.970;2023-06-10T04:54:43;100777.56;;;16.33;100.00
36062;BME280;22123;52.412;20.970;2023-06-10T04:57:09;100821.56;;;16.64;100.00
36062;BME280;22123;52.412;20.970;2023-06-10T04:59:35;100793.09;;;16.53;100.00
36062;BME280;22123;52.412;20.970;2023-06-10T05:02:01;100822.44;;;16.71;100.00
36062;BME280;22123;52.412;20.970;2023-06-10T05:04:26;100801.50;;;16.65;100.00
36062;BME280;22123;52.412;20.970;2023-06-10T05:06:52;100823.28;;;16.78;100.00
36062;BME280;22123;52.412;20.970;2023-06-10T05:09:18;100800.69;;;16.64;100.00
36062;BME280;22123;52.412;20.970;2023-06-10T05:11:44;100825.41;;;16.83;100.00
36062;BME280;22123;52.412;20.970;2023-06-10T05:14:09;100802.56;;;16.71;100.00
36062;BME280;22123;52.412;20.970;2023-06-10T05:16:35;100800.25;;;16.74;100.00
36062;BME280;22123;52.412;20.970;2023-06-10T05:19:01;100832.78;;;17.02;100.00
36062;BME280;22123;52.412;20.970;2023-06-10T05:21:27;100817.06;;;16.91;100.00
36062;BME280;22123;52.412;20.970;2023-06-10T05:23:53;100837.63;;;17.07;100.00
36062;BME280;22123;52.412;20.970;2023-06-10T05:26:18;100816.66;;;16.94;100.00
36062;BME280;22123;52.412;20.970;2023-06-10T05:28:44;100802.66;;;16.91;100.00
36062;BME280;22123;52.412;20.970;2023-06-10T05:31:10;100846.44;;;17.23;100.00
36062;BME280;22123;52.412;20.970;2023-06-10T05:33:36;100823.59;;;17.03;100.00
36062;BME280;22123;52.412;20.970;2023-06-10T05:36:01;100841.81;;;17.23;100.00
36062;BME280;22123;52.412;20.970;2023-06-10T05:38:27;100823.81;;;17.09;100.00
36062;BME280;22123;52.412;20.970;2023-06-10T05:40:53;100847.91;;;17.25;100.00
36062;BME280;22123;52.412;20.970;2023-06-10T05:43:19;100829.06;;;17.17;100.00
36062;BME280;22123;52.412;20.970;2023-06-10T05:45:45;100818.38;;;17.15;100.00
36062;BME280;22123;52.412;20.970;2023-06-10T05:48:10;100843.72;;;17.36;100.00
36062;BME280;22123;52.412;20.970;2023-06-10T05:50:36;100829.28;;;17.22;100.00
36062;BME280;22123;52.412;20.970;2023-06-10T05:53:02;100812.75;;;17.24;100.00
36062;BME280;22123;52.412;20.970;2023-06-10T05:55:28;100846.69;;;17.54;100.00
36062;BME280;22123;52.412;20.970;2023-06-10T05:58:02;100842.72;;;17.57;100.00
36062;BME280;22123;52.412;20.970;2023-06-10T06:00:28;100828.69;;;17.60;100.00
36062;BME280;22123;52.412;20.970;2023-06-10T06:02:54;100849.81;;;17.85;100.00
36062;BME280;22123;52.412;20.970;2023-06-10T06:05:20;100833.25;;;17.86;100.00
36062;BME280;22123;52.412;20.970;2023-06-10T06:07:46;100825.50;;;18.03;100.00
36062;BME280;22123;52.412;20.970;2023-06-10T06:10:11;100855.22;;;18.25;100.00
36062;BME280;22123;52.412;20.970;2023-06-10T06:12:37;100847.66;;;18.27;100.00
36062;BME280;22123;52.412;20.970;2023-06-10T06:15:03;100829.47;;;18.14;100.00
36062;BME280;22123;52.412;20.970;2023-06-10T06:17:29;100832.13;;;18.28;100.00
36062;BME280;22123;52.412;20.970;2023-06-10T06:19:55;100828.59;;;18.27;100.00
36062;BME280;22123;52.412;20.970;2023-06-10T06:22:21;100842.38;;;18.39;100.00
36062;BME280;22123;52.412;20.970;2023-06-10T06:24:47;100854.53;;;18.50;100.00
36062;BME280;22123;52.412;20.970;2023-06-10T06:27:13;100842.97;;;18.48;100.00
36062;BME280;22123;52.412;20.970;2023-06-10T06:29:38;100822.47;;;18.32;100.00
36062;BME280;22123;52.412;20.970;2023-06-10T06:32:05;100856.44;;;18.36;100.00
36062;BME280;22123;52.412;20.970;2023-06-10T06:34:30;100839.91;;;18.24;100.00
36062;BME280;22123;52.412;20.970;2023-06-10T06:36:56;100841.19;;;18.21;100.00
36062;BME280;22123;52.412;20.970;2023-06-10T06:39:22;100818.81;;;17.99;100.00
36062;BME280;22123;52.412;20.970;2023-06-10T06:41:48;100857.31;;;18.30;100.00
36062;BME280;22123;52.412;20.970;2023-06-10T06:44:14;100853.94;;;18.34;100.00
36062;BME280;22123;52.412;20.970;2023-06-10T06:46:40;100854.75;;;18.35;100.00
36062;BME280;22123;52.412;20.970;2023-06-10T06:49:05;100838.44;;;18.28;100.00
36062;BME280;22123;52.412;20.970;2023-06-10T06:51:31;100846.78;;;18.33;100.00
36062;BME280;22123;52.412;20.970;2023-06-10T06:53:57;100857.84;;;18.52;100.00
36062;BME280;22123;52.412;20.970;2023-06-10T06:56:23;100830.00;;;18.43;100.00
36062;BME280;22123;52.412;20.970;2023-06-10T06:58:49;100869.34;;;18.67;100.00
36062;BME280;22123;52.412;20.970;2023-06-10T07:01:15;100870.09;;;18.88;100.00
36062;BME280;22123;52.412;20.970;2023-06-10T07:03:41;100860.44;;;18.92;100.00
36062;BME280;22123;52.412;20.970;2023-06-10T07:06:07;100869.66;;;18.98;100.00
36062;BME280;22123;52.412;20.970;2023-06-10T07:08:33;100879.91;;;19.02;100.00
36062;BME280;22123;52.412;20.970;2023-06-10T07:10:59;100847.03;;;18.90;100.00
36062;BME280;22123;52.412;20.970;2023-06-10T07:13:24;100872.63;;;19.28;100.00
36062;BME280;22123;52.412;20.970;2023-06-10T07:15:50;100865.38;;;19.40;100.00
36062;BME280;22123;52.412;20.970;2023-06-10T07:18:16;100831.84;;;19.33;100.00
36062;BME280;22123;52.412;20.970;2023-06-10T07:20:42;100885.16;;;19.61;100.00
36062;BME280;22123;52.412;20.970;2023-06-10T07:23:07;100860.00;;;19.59;100.00
36062;BME280;22123;52.412;20.970;2023-06-10T07:25:33;100881.72;;;19.72;100.00
36062;BME280;22123;52.412;20.970;2023-06-10T07:27:59;100890.28;;;19.83;100.00
36062;BME280;22123;52.412;20.970;2023-06-10T07:30:25;100856.75;;;19.69;100.00
36062;BME280;22123;52.412;20.970;2023-06-10T07:32:51;100843.22;;;19.55;100.00
36062;BME280;22123;52.412;20.970;2023-06-10T07:35:17;100876.53;;;19.96;100.00
36062;BME280;22123;52.412;20.970;2023-06-10T07:37:43;100857.50;;;19.83;100.00
36062;BME280;22123;52.412;20.970;2023-06-10T07:40:09;100864.69;;;20.02;100.00
36062;BME280;22123;52.412;20.970;2023-06-10T07:42:36;100891.19;;;20.20;100.00
36062;BME280;22123;52.412;20.970;2023-06-10T07:45:03;100891.59;;;20.42;100.00
36062;BME280;22123;52.412;20.970;2023-06-10T07:47:29;100877.06;;;20.23;96.41
36062;BME280;22123;52.412;20.970;2023-06-10T07:49:56;100876.56;;;20.33;98.55
36062;BME280;22123;52.412;20.970;2023-06-10T07:52:21;100893.03;;;20.45;97.18
36062;BME280;22123;52.412;20.970;2023-06-10T07:54:47;100886.50;;;20.46;97.74
36062;BME280;22123;52.412;20.970;2023-06-10T07:57:13;100896.47;;;20.59;90.59
36062;BME280;22123;52.412;20.970;2023-06-10T07:59:39;100877.09;;;20.60;86.78
36062;BME280;22123;52.412;20.970;2023-06-10T08:02:05;100861.75;;;20.41;92.08
36062;BME280;22123;52.412;20.970;2023-06-10T08:04:31;100896.63;;;20.64;90.69
36062;BME280;22123;52.412;20.970;2023-06-10T08:06:57;100882.09;;;20.45;86.60
36062;BME280;22123;52.412;20.970;2023-06-10T08:09:23;100864.88;;;20.44;91.93
36062;BME280;22123;52.412;20.970;2023-06-10T08:11:49;100877.47;;;20.64;91.96
36062;BME280;22123;52.412;20.970;2023-06-10T08:14:15;100895.72;;;20.70;91.78
36062;BME280;22123;52.412;20.970;2023-06-10T08:16:43;100888.25;;;20.59;89.52
36062;BME280;22123;52.412;20.970;2023-06-10T08:19:09;100896.63;;;20.82;89.79
36062;BME280;22123;52.412;20.970;2023-06-10T08:21:35;100907.53;;;21.01;93.79
36062;BME280;22123;52.412;20.970;2023-06-10T08:24:01;100853.28;;;20.98;90.55
36062;BME280;22123;52.412;20.970;2023-06-10T08:26:27;100883.84;;;21.79;86.10
36062;BME280;22123;52.412;20.970;2023-06-10T08:28:53;100879.69;;;22.12;87.30
36062;BME280;22123;52.412;20.970;2023-06-10T08:31:18;100886.81;;;22.61;73.79
36062;BME280;22123;52.412;20.970;2023-06-10T08:33:44;100837.97;;;22.34;76.29
36062;BME280;22123;52.412;20.970;2023-06-10T08:36:10;100895.16;;;23.35;74.55
36062;BME280;22123;52.412;20.970;2023-06-10T08:38:36;100893.69;;;23.61;71.91
36062;BME280;22123;52.412;20.970;2023-06-10T08:41:05;100900.38;;;24.00;69.45
36062;BME280;22123;52.412;20.970;2023-06-10T08:43:59;100907.94;;;23.75;65.23
36062;BME280;22123;52.412;20.970;2023-06-10T08:46:31;100913.59;;;24.03;64.60
36062;BME280;22123;52.412;20.970;2023-06-10T08:49:02;100887.88;;;24.09;64.18
36062;BME280;22123;52.412;20.970;2023-06-10T08:51:29;100892.56;;;23.91;63.51
36062;BME280;22123;52.412;20.970;2023-06-10T08:54:05;100899.34;;;24.23;62.41
36062;BME280;22123;52.412;20.970;2023-06-10T08:56:39;100913.94;;;24.62;63.03
36062;BME280;22123;52.412;20.970;2023-06-10T08:59:05;100891.72;;;24.91;59.77
36062;BME280;22123;52.412;20.970;2023-06-10T09:01:32;100889.66;;;25.04;58.25
36062;BME280;22123;52.412;20.970;2023-06-10T09:03:59;100905.63;;;25.02;59.46
36062;BME280;22123;52.412;20.970;2023-06-10T09:06:25;100882.03;;;24.44;57.95
36062;BME280;22123;52.412;20.970;2023-06-10T09:08:51;100901.97;;;24.96;60.66
36062;BME280;22123;52.412;20.970;2023-06-10T09:11:17;100912.59;;;24.65;60.90
36062;BME280;22123;52.412;20.970;2023-06-10T09:13:43;100854.63;;;24.55;57.61
36062;BME280;22123;52.412;20.970;2023-06-10T09:16:09;100869.91;;;24.85;56.40
36062;BME280;22123;52.412;20.970;2023-06-10T09:18:36;100861.34;;;24.81;54.77
36062;BME280;22123;52.412;20.970;2023-06-10T09:21:01;100874.84;;;24.82;58.44
36062;BME280;22123;52.412;20.970;2023-06-10T09:23:27;100906.25;;;25.09;58.80
36062;BME280;22123;52.412;20.970;2023-06-10T09:25:57;100868.03;;;24.90;63.15
36062;BME280;22123;52.412;20.970;2023-06-10T09:28:23;100866.25;;;24.79;61.42
36062;BME280;22123;52.412;20.970;2023-06-10T09:30:49;100864.97;;;25.14;59.76
36062;BME280;22123;52.412;20.970;2023-06-10T09:33:16;100877.03;;;25.62;56.35
36062;BME280;22123;52.412;20.970;2023-06-10T09:35:49;100900.59;;;25.80;54.64
36062;BME280;22123;52.412;20.970;2023-06-10T09:38:20;100894.91;;;25.60;57.15
36062;BME280;22123;52.412;20.970;2023-06-10T09:40:53;100873.44;;;25.34;57.95
36062;BME280;22123;52.412;20.970;2023-06-10T09:43:19;100885.34;;;25.13;53.91
36062;BME280;22123;52.412;20.970;2023-06-10T09:45:55;100878.63;;;25.04;54.08
36062;BME280;22123;52.412;20.970;2023-06-10T09:48:21;100886.72;;;24.88;55.34
36062;BME280;22123;52.412;20.970;2023-06-10T09:50:48;100889.59;;;24.54;56.27
36062;BME280;22123;52.412;20.970;2023-06-10T09:53:14;100892.75;;;24.63;57.34
36062;BME280;22123;52.412;20.970;2023-06-10T09:55:41;100873.22;;;24.64;52.92
36062;BME280;22123;52.412;20.970;2023-06-10T09:58:07;100877.97;;;24.91;53.83
36062;BME280;22123;52.412;20.970;2023-06-10T10:00:33;100902.13;;;25.33;52.78
36062;BME280;22123;52.412;20.970;2023-06-10T10:03:00;100896.22;;;25.52;52.38
36062;BME280;22123;52.412;20.970;2023-06-10T10:05:26;100861.41;;;25.41;47.39
36062;BME280;22123;52.412;20.970;2023-06-10T10:07:53;100890.16;;;25.82;47.44
36062;BME280;22123;52.412;20.970;2023-06-10T10:10:20;100887.84;;;26.07;45.58
36062;BME280;22123;52.412;20.970;2023-06-10T10:12:48;100867.25;;;26.78;45.04
36062;BME280;22123;52.412;20.970;2023-06-10T10:15:16;100899.38;;;27.20;41.65
36062;BME280;22123;52.412;20.970;2023-06-10T10:18:04;100898.38;;;27.57;39.48
36062;BME280;22123;52.412;20.970;2023-06-10T10:20:33;100866.25;;;27.97;40.23
36062;BME280;22123;52.412;20.970;2023-06-10T10:23:03;100863.91;;;28.61;38.46
36062;BME280;22123;52.412;20.970;2023-06-10T10:25:37;100883.41;;;28.95;39.37
36062;BME280;22123;52.412;20.970;2023-06-10T10:28:11;100858.09;;;29.47;35.89
36062;BME280;22123;52.412;20.970;2023-06-10T10:30:49;100879.00;;;30.03;35.53
36062;BME280;22123;52.412;20.970;2023-06-10T10:33:33;100878.53;;;29.91;35.27
36062;BME280;22123;52.412;20.970;2023-06-10T10:36:02;100865.59;;;30.78;35.14
36062;BME280;22123;52.412;20.970;2023-06-10T10:38:28;100883.56;;;31.81;32.04
36062;BME280;22123;52.412;20.970;2023-06-10T10:40:55;100876.94;;;31.90;32.62
36062;BME280;22123;52.412;20.970;2023-06-10T10:43:22;100879.19;;;31.75;31.72
36062;BME280;22123;52.412;20.970;2023-06-10T10:46:01;100884.03;;;30.74;35.48
36062;BME280;22123;52.412;20.970;2023-06-10T10:48:35;100871.44;;;30.57;32.51
36062;BME280;22123;52.412;20.970;2023-06-10T10:51:02;100866.38;;;30.83;33.52
36062;BME280;22123;52.412;20.970;2023-06-10T10:53:29;100864.56;;;30.25;33.64
36062;BME280;22123;52.412;20.970;2023-06-10T10:56:08;100872.78;;;30.84;33.62
36062;BME280;22123;52.412;20.970;2023-06-10T10:58:38;100860.91;;;30.97;33.48
36062;BME280;22123;52.412;20.970;2023-06-10T11:01:11;100867.72;;;30.86;33.54
36062;BME280;22123;52.412;20.970;2023-06-10T11:03:43;100873.94;;;30.78;36.36
36062;BME280;22123;52.412;20.970;2023-06-10T11:06:13;100868.59;;;31.25;35.52
36062;BME280;22123;52.412;20.970;2023-06-10T11:08:46;100858.91;;;30.60;34.05
36062;BME280;22123;52.412;20.970;2023-06-10T11:11:25;100875.50;;;30.41;34.93
36062;BME280;22123;52.412;20.970;2023-06-10T11:13:59;100855.16;;;29.67;34.09
36062;BME280;22123;52.412;20.970;2023-06-10T11:16:38;100859.81;;;29.43;37.77
36062;BME280;22123;52.412;20.970;2023-06-10T11:19:04;100811.81;;;28.58;38.90
36062;BME280;22123;52.412;20.970;2023-06-10T11:21:30;100870.25;;;28.61;41.04
36062;BME280;22123;52.412;20.970;2023-06-10T11:23:58;100885.47;;;28.59;40.28
36062;BME280;22123;52.412;20.970;2023-06-10T11:31:20;100843.88;;;27.99;39.65
36062;BME280;22123;52.412;20.970;2023-06-10T11:33:59;100871.25;;;28.00;40.44
36062;BME280;22123;52.412;20.970;2023-06-10T11:36:26;100837.53;;;27.62;44.24
36062;BME280;22123;52.412;20.970;2023-06-10T11:38:59;100865.75;;;27.54;42.27
36062;BME280;22123;52.412;20.970;2023-06-10T11:41:27;100849.41;;;27.21;43.16
36062;BME280;22123;52.412;20.970;2023-06-10T11:43:53;100827.81;;;27.29;44.34
36062;BME280;22123;52.412;20.970;2023-06-10T11:46:19;100840.31;;;27.47;48.16
36062;BME280;22123;52.412;20.970;2023-06-10T11:48:50;100827.88;;;27.34;42.29
36062;BME280;22123;52.412;20.970;2023-06-10T11:51:16;100828.09;;;27.01;48.01
36062;BME280;22123;52.412;20.970;2023-06-10T11:53:48;100842.97;;;26.85;45.99
36062;BME280;22123;52.412;20.970;2023-06-10T11:56:27;100848.19;;;26.76;42.77
36062;BME280;22123;52.412;20.970;2023-06-10T11:59:01;100859.38;;;26.44;43.52
36062;BME280;22123;52.412;20.970;2023-06-10T12:01:28;100850.88;;;26.08;44.50
36062;BME280;22123;52.412;20.970;2023-06-10T12:06:23;100859.41;;;25.68;48.30
36062;BME280;22123;52.412;20.970;2023-06-10T12:08:49;100849.19;;;25.64;49.03
36062;BME280;22123;52.412;20.970;2023-06-10T12:11:15;100851.38;;;25.62;52.80
36062;BME280;22123;52.412;20.970;2023-06-10T12:13:50;100836.00;;;25.71;51.44
36062;BME280;22123;52.412;20.970;2023-06-10T12:16:16;100833.00;;;25.73;57.93
36062;BME280;22123;52.412;20.970;2023-06-10T12:18:46;100854.47;;;25.71;51.53
36062;BME280;22123;52.412;20.970;2023-06-10T12:21:20;100834.91;;;25.72;52.73
36062;BME280;22123;52.412;20.970;2023-06-10T12:26:48;100849.41;;;25.95;55.59
36062;BME280;22123;52.412;20.970;2023-06-10T12:29:23;100834.72;;;25.84;50.76
36062;BME280;22123;52.412;20.970;2023-06-10T12:31:58;100819.63;;;25.54;55.75
36062;BME280;22123;52.412;20.970;2023-06-10T12:36:57;100823.53;;;25.63;54.23
36062;BME280;22123;52.412;20.970;2023-06-10T12:39:23;100810.53;;;25.54;54.97
36062;BME280;22123;52.412;20.970;2023-06-10T12:41:49;100788.88;;;25.35;54.16
36062;BME280;22123;52.412;20.970;2023-06-10T12:44:15;100813.84;;;25.56;53.68
36062;BME280;22123;52.412;20.970;2023-06-10T12:46:41;100799.66;;;25.37;50.85